Time;durP1;ratioP1;P1;durP2;ratioP2;P2;SDS_P1;SDS_P2;PMS_P1;PMS_P2;Temp;Humidity;BMP_temperature;BMP_pressure;BME280_temperature;BME280_humidity;BME280_pressure;Samples;Min_cycle;Max_cycle;Signal;HPM_P1;HPM_P2
2023/04/17 00:00:57;;;;;;;2.70;0.70;;;;;;;-143.29;100.00;62188.47;4896582;29;20116;-75
2023/04/17 00:03:22;;;;;;;2.63;0.73;;;;;;;-143.29;100.00;62188.47;4896281;29;20060;-75
2023/04/17 00:05:48;;;;;;;4.35;1.20;;;;;;;-143.29;100.00;62188.47;4896477;29;20436;-75
2023/04/17 00:08:13;;;;;;;1.42;0.73;;;;;;;-143.29;100.00;62188.47;4896268;29;20032;-75
2023/04/17 00:10:38;;;;;;;1.55;0.85;;;;;;;-143.29;100.00;62188.47;4896332;29;20652;-75
2023/04/17 00:13:04;;;;;;;2.78;0.63;;;;;;;-143.29;100.00;62188.47;4896084;29;20061;-75
2023/04/17 00:15:29;;;;;;;1.73;0.90;;;;;;;-143.29;100.00;62188.47;4896379;29;20035;-75
2023/04/17 00:17:55;;;;;;;3.88;0.77;;;;;;;-143.29;100.00;62188.47;4899828;29;20356;-75
2023/04/17 00:20:20;;;;;;;2.05;0.75;;;;;;;-143.29;100.00;62188.47;4899821;29;20146;-75
2023/04/17 00:22:45;;;;;;;2.50;0.77;;;;;;;-143.29;100.00;62188.47;4899509;29;20039;-75
2023/04/17 00:25:13;;;;;;;2.30;0.80;;;;;;;-143.29;100.00;62188.47;4898082;29;20095;-75
2023/04/17 00:27:40;;;;;;;2.70;0.82;;;;;;;-143.29;100.00;62188.47;4899463;29;20039;-75
2023/04/17 00:30:06;;;;;;;1.63;0.80;;;;;;;-143.29;100.00;62188.47;4899574;29;20028;-75
2023/04/17 00:32:31;;;;;;;2.45;0.60;;;;;;;-143.29;100.00;62188.47;4899466;29;20024;-75
2023/04/17 00:34:57;;;;;;;2.28;0.75;;;;;;;-143.29;100.00;62188.47;4899148;29;20033;-75
2023/04/17 00:37:22;;;;;;;2.63;0.65;;;;;;;-143.29;100.00;62188.47;4899362;29;20056;-75
2023/04/17 00:39:47;;;;;;;3.55;0.75;;;;;;;-143.29;100.00;62188.47;4899362;29;20055;-75
2023/04/17 00:42:13;;;;;;;2.67;0.75;;;;;;;-143.29;100.00;62188.47;4899261;29;20076;-75
2023/04/17 00:44:38;;;;;;;3.15;0.68;;;;;;;-143.29;100.00;62188.47;4899006;29;20088;-75
2023/04/17 00:47:04;;;;;;;1.65;0.80;;;;;;;-143.29;100.00;62188.47;4899109;29;20387;-75
2023/04/17 00:49:30;;;;;;;1.00;0.50;;;;;;;-143.29;100.00;62188.47;4899209;29;20072;-75
2023/04/17 00:51:55;;;;;;;5.75;0.60;;;;;;;-143.29;100.00;62188.47;4899067;29;20058;-75
2023/04/17 00:54:23;;;;;;;2.42;0.63;;;;;;;-143.29;100.00;62188.47;4898965;29;20088;-75
2023/04/17 00:56:49;;;;;;;2.45;0.90;;;;;;;-143.29;100.00;62188.47;4898982;29;20432;-75
2023/04/17 00:59:16;;;;;;;3.53;1.00;;;;;;;-143.29;100.00;62188.47;4898984;29;20043;-75
2023/04/17 01:01:41;;;;;;;1.63;0.80;;;;;;;-143.29;100.00;62188.47;4898971;29;20032;-75
2023/04/17 01:04:08;;;;;;;2.53;1.10;;;;;;;-143.29;100.00;62188.47;4897692;29;20365;-75
2023/04/17 01:06:34;;;;;;;2.08;0.70;;;;;;;-143.29;100.00;62188.47;4898760;29;20025;-75
2023/04/17 01:09:00;;;;;;;2.20;0.73;;;;;;;-143.29;100.00;62188.47;4898785;29;20064;-75
2023/04/17 01:11:25;;;;;;;4.07;0.98;;;;;;;-143.29;100.00;62188.47;4899080;29;20116;-75
2023/04/17 01:13:51;;;;;;;3.25;1.00;;;;;;;-143.29;100.00;62188.47;4898729;29;20104;-75
2023/04/17 01:16:17;;;;;;;4.15;0.65;;;;;;;-143.29;100.00;62188.47;4898640;29;20319;-75
2023/04/17 01:18:43;;;;;;;3.20;0.80;;;;;;;-143.29;100.00;62188.47;4898440;29;20268;-75
2023/04/17 01:21:09;;;;;;;3.10;0.68;;;;;;;-143.29;100.00;62188.47;4898331;29;20040;-75
2023/04/17 01:23:43;;;;;;;1.75;0.57;;;;;;;-143.29;100.00;62188.47;4902798;29;20130;-75
2023/04/17 01:26:08;;;;;;;2.70;0.98;;;;;;;-143.29;100.00;62188.47;4898123;29;20029;-75
2023/04/17 01:28:34;;;;;;;2.95;0.63;;;;;;;-143.29;100.00;62188.47;4897890;29;20025;-75
2023/04/17 01:30:59;;;;;;;2.00;0.52;;;;;;;-143.29;100.00;62188.47;4898334;29;20064;-75
2023/04/17 01:33:24;;;;;;;3.50;0.90;;;;;;;-143.29;100.00;62188.47;4898500;29;20048;-75
2023/04/17 01:35:50;;;;;;;3.75;0.85;;;;;;;-143.29;100.00;62188.47;4898243;29;20045;-75
2023/04/17 01:38:15;;;;;;;3.45;0.80;;;;;;;-143.29;100.00;62188.47;4898347;29;20063;-75
2023/04/17 01:40:40;;;;;;;4.18;0.77;;;;;;;-143.29;100.00;62188.47;4898323;29;20059;-75
2023/04/17 01:43:06;;;;;;;2.42;0.70;;;;;;;-143.29;100.00;62188.47;4896847;29;20028;-75
2023/04/17 01:45:31;;;;;;;6.88;2.45;;;;;;;-143.29;100.00;62188.47;4898079;29;20036;-75
2023/04/17 01:47:56;;;;;;;2.05;0.68;;;;;;;-143.29;100.00;62188.47;4898056;29;20498;-75
2023/04/17 01:50:22;;;;;;;3.30;0.93;;;;;;;-143.29;100.00;62188.47;4898151;29;20100;-75
2023/04/17 01:52:47;;;;;;;2.35;0.80;;;;;;;-143.29;100.00;62188.47;4898043;29;20061;-75
2023/04/17 01:55:12;;;;;;;1.73;0.68;;;;;;;-143.29;100.00;62188.47;4897968;29;20036;-75
2023/04/17 01:57:38;;;;;;;3.72;0.98;;;;;;;-143.29;100.00;62188.47;4897846;29;20503;-75
2023/04/17 02:00:08;;;;;;;4.78;1.08;;;;;;;-143.29;100.00;62188.47;4897844;29;20111;-75
2023/04/17 02:02:33;;;;;;;3.28;1.27;;;;;;;-143.29;100.00;62188.47;4897897;29;20036;-75
2023/04/17 02:04:58;;;;;;;2.33;0.80;;;;;;;-143.29;100.00;62188.47;4897718;29;20047;-75
2023/04/17 02:07:24;;;;;;;5.10;1.00;;;;;;;-143.29;100.00;62188.47;4897725;29;20036;-75
2023/04/17 02:09:49;;;;;;;1.60;0.70;;;;;;;-143.29;100.00;62188.47;4897804;29;20037;-75
2023/04/17 02:12:15;;;;;;;1.73;0.80;;;;;;;-143.29;100.00;62188.47;4897720;29;20555;-75
2023/04/17 02:14:40;;;;;;;2.05;0.75;;;;;;;-143.29;100.00;62188.47;4897510;29;20039;-75
2023/04/17 02:17:06;;;;;;;4.25;0.80;;;;;;;-143.29;100.00;62188.47;4897533;29;20368;-75
2023/04/17 02:19:31;;;;;;;1.67;0.70;;;;;;;-143.29;100.00;62188.47;4897557;29;20024;-75
2023/04/17 02:21:56;;;;;;;2.22;0.93;;;;;;;-143.29;100.00;62188.47;4897598;29;20117;-75
2023/04/17 02:24:21;;;;;;;2.05;0.88;;;;;;;-143.29;100.00;62188.47;4897422;29;20084;-75
2023/04/17 02:26:47;;;;;;;1.88;0.70;;;;;;;-143.29;100.00;62188.47;4897220;29;20088;-75
2023/04/17 02:29:12;;;;;;;1.67;0.70;;;;;;;-143.29;100.00;62188.47;4897527;29;20088;-75
2023/04/17 02:31:40;;;;;;;5.80;0.70;;;;;;;-143.29;100.00;62188.47;4897702;29;20032;-75
2023/04/17 02:34:05;;;;;;;2.42;0.75;;;;;;;-143.29;100.00;62188.47;4897236;29;20063;-75
2023/04/17 02:36:30;;;;;;;5.00;1.77;;;;;;;-143.29;100.00;62188.47;4897135;29;20072;-75
2023/04/17 02:38:56;;;;;;;4.03;0.80;;;;;;;-143.29;100.00;62188.47;4896651;29;20028;-75
2023/04/17 02:41:21;;;;;;;7.05;1.08;;;;;;;-143.29;100.00;62188.47;4896984;29;20063;-75
2023/04/17 02:43:47;;;;;;;2.20;0.80;;;;;;;-143.29;100.00;62188.47;4896943;29;20364;-75
2023/04/17 02:46:12;;;;;;;4.70;0.93;;;;;;;-143.29;100.00;62188.47;4897110;29;20119;-75
2023/04/17 02:48:37;;;;;;;2.45;0.70;;;;;;;-143.29;100.00;62188.47;4896946;29;20057;-75
2023/04/17 02:51:03;;;;;;;2.28;0.80;;;;;;;-143.29;100.00;62188.47;4897004;29;20493;-75
2023/04/17 02:53:28;;;;;;;1.83;0.88;;;;;;;-143.29;100.00;62188.47;4897155;29;20542;-75
2023/04/17 02:55:54;;;;;;;3.00;1.10;;;;;;;-143.29;100.00;62188.47;4896819;29;20089;-75
2023/04/17 02:58:19;;;;;;;1.45;0.60;;;;;;;-143.29;100.00;62188.47;4896782;29;20029;-75
2023/04/17 03:00:44;;;;;;;5.50;1.10;;;;;;;-143.29;100.00;62188.47;4896906;29;20029;-75
2023/04/17 03:03:10;;;;;;;4.13;0.80;;;;;;;-143.29;100.00;62188.47;4896940;29;20033;-74
2023/04/17 03:05:35;;;;;;;2.45;0.98;;;;;;;-143.29;100.00;62188.47;4896817;29;20168;-75
2023/04/17 03:08:00;;;;;;;3.47;0.70;;;;;;;-143.29;100.00;62188.47;4896545;29;20088;-75
2023/04/17 03:10:26;;;;;;;0.95;0.65;;;;;;;-143.29;100.00;62188.47;4896903;29;20037;-75
2023/04/17 03:12:52;;;;;;;2.33;0.90;;;;;;;-143.29;100.00;62188.47;4896907;29;20040;-75
2023/04/17 03:15:17;;;;;;;2.67;0.90;;;;;;;-143.29;100.00;62188.47;4896802;29;20551;-75
2023/04/17 03:17:43;;;;;;;2.22;0.88;;;;;;;-143.29;100.00;62188.47;4897109;29;20078;-75
2023/04/17 03:20:08;;;;;;;2.60;0.80;;;;;;;-143.29;100.00;62188.47;4896443;29;20016;-75
2023/04/17 03:22:35;;;;;;;1.88;0.77;;;;;;;-143.29;100.00;62188.47;4896850;29;20075;-75
2023/04/17 03:25:01;;;;;;;2.42;0.98;;;;;;;-143.29;100.00;62188.47;4896887;29;20025;-75
2023/04/17 03:27:26;;;;;;;2.60;0.63;;;;;;;-143.29;100.00;62188.47;4896626;29;20024;-75
2023/04/17 03:29:53;;;;;;;2.08;0.73;;;;;;;-143.29;100.00;62188.47;4896669;29;20044;-75
2023/04/17 03:32:19;;;;;;;4.15;1.55;;;;;;;-143.29;100.00;62188.47;4897137;29;20024;-75
2023/04/17 03:34:44;;;;;;;4.03;1.05;;;;;;;-143.29;100.00;62188.47;4896301;29;20061;-75
2023/04/17 03:37:10;;;;;;;2.13;0.85;;;;;;;-143.29;100.00;62188.47;4896550;29;20047;-75
2023/04/17 03:39:35;;;;;;;2.38;0.88;;;;;;;-143.29;100.00;62188.47;4896662;29;20033;-75
2023/04/17 03:42:01;;;;;;;2.40;0.80;;;;;;;-143.29;100.00;62188.47;4896724;29;20455;-75
2023/04/17 03:44:26;;;;;;;2.13;0.98;;;;;;;-143.29;100.00;62188.47;4896583;29;20103;-75
2023/04/17 03:46:51;;;;;;;3.60;0.80;;;;;;;-143.29;100.00;62188.47;4896478;29;20020;-75
2023/04/17 03:49:17;;;;;;;2.78;0.98;;;;;;;-143.29;100.00;62188.47;4896544;29;20032;-75
2023/04/17 03:51:42;;;;;;;4.13;1.20;;;;;;;-143.29;100.00;62188.47;4898654;29;20035;-75
2023/04/17 03:54:08;;;;;;;2.28;0.73;;;;;;;-143.29;100.00;62188.47;4900225;29;20024;-75
2023/04/17 03:56:33;;;;;;;2.75;0.90;;;;;;;-143.29;100.00;62188.47;4899936;29;20040;-75
2023/04/17 03:58:59;;;;;;;2.30;0.90;;;;;;;-143.29;100.00;62188.47;4900054;29;20153;-75
2023/04/17 04:01:27;;;;;;;3.38;0.70;;;;;;;-143.29;100.00;62188.47;4900078;29;20039;-75
2023/04/17 04:03:52;;;;;;;2.08;0.88;;;;;;;-143.29;100.00;62188.47;4899879;29;20036;-75
2023/04/17 04:06:19;;;;;;;1.30;0.77;;;;;;;-143.29;100.00;62188.47;4899875;29;20029;-75
2023/04/17 04:08:45;;;;;;;2.67;0.95;;;;;;;-143.29;100.00;62188.47;4899834;29;20115;-75
2023/04/17 04:11:10;;;;;;;2.80;1.05;;;;;;;-143.29;100.00;62188.47;4900038;29;20058;-75
2023/04/17 04:13:35;;;;;;;2.58;0.80;;;;;;;-143.29;100.00;62188.47;4899877;29;20036;-75
2023/04/17 04:16:00;;;;;;;1.80;0.80;;;;;;;-143.29;100.00;62188.47;4899770;29;20040;-75
2023/04/17 04:18:26;;;;;;;2.33;1.00;;;;;;;-143.29;100.00;62188.47;4899653;29;20033;-75
2023/04/17 04:20:51;;;;;;;4.90;1.27;;;;;;;-143.29;100.00;62188.47;4899718;29;20035;-75
2023/04/17 04:23:19;;;;;;;1.77;1.10;;;;;;;-143.29;100.00;62188.47;4899759;29;20029;-75
2023/04/17 04:25:45;;;;;;;5.70;1.15;;;;;;;-143.29;100.00;62188.47;4899468;29;20394;-75
2023/04/17 04:28:12;;;;;;;1.08;0.70;;;;;;;-143.29;100.00;62188.47;4899639;29;20116;-75
2023/04/17 04:30:37;;;;;;;2.58;0.75;;;;;;;-143.29;100.00;62188.47;4899560;29;20436;-75
2023/04/17 04:33:07;;;;;;;2.90;0.90;;;;;;;-143.29;100.00;62188.47;4899618;29;20088;-75
2023/04/17 04:35:32;;;;;;;2.30;0.65;;;;;;;-143.29;100.00;62188.47;4899421;29;20036;-75
2023/04/17 04:38:01;;;;;;;3.28;1.00;;;;;;;-143.29;100.00;62188.47;4899227;29;20081;-75
2023/04/17 04:40:34;;;;;;;5.88;1.42;;;;;;;-143.29;100.00;62188.47;4899363;29;20033;-75
2023/04/17 04:43:00;;;;;;;2.47;0.90;;;;;;;-143.29;100.00;62188.47;4899324;29;20039;-75
2023/04/17 04:45:25;;;;;;;2.03;0.90;;;;;;;-143.29;100.00;62188.47;4899230;29;20486;-75
2023/04/17 04:47:51;;;;;;;1.80;0.73;;;;;;;-143.29;100.00;62188.47;4899124;29;20029;-75
2023/04/17 04:50:16;;;;;;;2.03;0.85;;;;;;;-143.29;100.00;62188.47;4899403;29;20056;-75
2023/04/17 04:52:42;;;;;;;2.10;0.93;;;;;;;-143.29;100.00;62188.47;4899322;29;20040;-75
2023/04/17 04:55:07;;;;;;;3.28;1.25;;;;;;;-143.29;100.00;62188.47;4898874;29;20079;-75
2023/04/17 04:57:33;;;;;;;2.35;0.98;;;;;;;-143.29;100.00;62188.47;4899133;29;20036;-75
2023/04/17 04:59:58;;;;;;;2.58;0.73;;;;;;;-143.29;100.00;62188.47;4898965;29;20052;-75
2023/04/17 05:02:23;;;;;;;2.60;0.98;;;;;;;-143.29;100.00;62188.47;4897978;29;20043;-75
2023/04/17 05:04:49;;;;;;;2.10;0.95;;;;;;;-143.29;100.00;62188.47;4898937;29;20024;-75
2023/04/17 05:07:15;;;;;;;2.17;1.00;;;;;;;-143.29;100.00;62188.47;4899010;29;20035;-75
2023/04/17 05:09:41;;;;;;;2.83;0.93;;;;;;;-143.29;100.00;62188.47;4898948;29;20391;-75
2023/04/17 05:12:06;;;;;;;4.25;1.23;;;;;;;-143.29;100.00;62188.47;4898850;29;20024;-75
2023/04/17 05:14:32;;;;;;;2.95;0.70;;;;;;;-143.29;100.00;62188.47;4898659;29;20088;-75
2023/04/17 05:16:57;;;;;;;3.78;1.20;;;;;;;-143.29;100.00;62188.47;4898657;29;20033;-75
2023/04/17 05:19:23;;;;;;;2.20;0.90;;;;;;;-143.29;100.00;62188.47;4898683;29;20111;-75
2023/04/17 05:21:48;;;;;;;3.63;1.38;;;;;;;-143.29;100.00;62188.47;4898770;29;20041;-75
2023/04/17 05:24:13;;;;;;;4.15;1.15;;;;;;;-143.29;100.00;62188.47;4898602;29;20032;-75
2023/04/17 05:26:39;;;;;;;1.63;0.70;;;;;;;-143.29;100.00;62188.47;4898446;29;20032;-75
2023/04/17 05:29:05;;;;;;;2.58;1.08;;;;;;;-143.29;100.00;62188.47;4897862;29;20041;-75
2023/04/17 05:31:30;;;;;;;2.53;1.15;;;;;;;-143.29;100.00;62188.47;4897502;29;20435;-75
2023/04/17 05:33:55;;;;;;;3.17;1.33;;;;;;;-143.29;100.00;62188.47;4898358;29;20084;-75
2023/04/17 05:36:21;;;;;;;5.32;1.40;;;;;;;-143.29;100.00;62188.47;4898193;29;20036;-75
2023/04/17 05:38:47;;;;;;;3.20;1.20;;;;;;;-143.29;100.00;62188.47;4897821;29;20247;-75
2023/04/17 05:41:13;;;;;;;6.07;1.10;;;;;;;-143.29;100.00;62188.47;4898372;29;20107;-75
2023/04/17 05:43:38;;;;;;;3.70;1.13;;;;;;;-143.29;100.00;62188.47;4898245;29;20115;-75
2023/04/17 05:46:04;;;;;;;12.35;1.55;;;;;;;-143.29;100.00;62188.47;4896928;29;20065;-75
2023/04/17 05:48:30;;;;;;;3.42;1.00;;;;;;;-143.29;100.00;62188.47;4897684;29;20033;-76
2023/04/17 05:50:55;;;;;;;3.83;1.10;;;;;;;-143.29;100.00;62188.47;4897613;29;20044;-77
2023/04/17 05:53:20;;;;;;;9.57;1.30;;;;;;;-143.29;100.00;62188.47;4897788;29;20635;-77
2023/04/17 05:55:46;;;;;;;5.47;1.60;;;;;;;-143.29;100.00;62188.47;4897115;29;20043;-77
2023/04/17 05:58:11;;;;;;;4.80;1.90;;;;;;;-143.29;100.00;62188.47;4897142;29;20029;-76
2023/04/17 06:00:37;;;;;;;4.03;1.30;;;;;;;-143.29;100.00;62188.47;4897977;29;20028;-76
2023/04/17 06:03:02;;;;;;;3.58;1.42;;;;;;;-143.29;100.00;62188.47;4897686;29;20379;-76
2023/04/17 06:05:28;;;;;;;9.65;1.80;;;;;;;-143.29;100.00;62188.47;4898041;29;20032;-76
2023/04/17 06:07:53;;;;;;;9.55;1.38;;;;;;;-143.29;100.00;62188.47;4897666;29;20505;-76
2023/04/17 06:10:19;;;;;;;5.95;2.00;;;;;;;-143.29;100.00;62188.47;4897354;29;20028;-75
2023/04/17 06:12:44;;;;;;;7.43;1.80;;;;;;;-143.29;100.00;62188.47;4897703;29;20491;-75
2023/04/17 06:15:10;;;;;;;6.50;1.65;;;;;;;-143.29;100.00;62188.47;4895412;29;20411;-75
2023/04/17 06:17:36;;;;;;;8.57;1.42;;;;;;;-143.29;100.00;62188.47;4896967;29;20032;-75
2023/04/17 06:20:04;;;;;;;6.30;2.08;;;;;;;-143.29;100.00;62188.47;4897475;29;20028;-75
2023/04/17 06:22:29;;;;;;;4.97;1.42;;;;;;;-143.29;100.00;62188.47;4896974;29;20031;-75
2023/04/17 06:24:55;;;;;;;6.95;1.75;;;;;;;-143.29;100.00;62188.47;4895390;29;20115;-75
2023/04/17 06:27:20;;;;;;;4.80;1.77;;;;;;;-143.29;100.00;62188.47;4897374;29;20021;-76
2023/04/17 06:29:45;;;;;;;5.70;1.52;;;;;;;-143.29;100.00;62188.47;4897449;29;20380;-75
2023/04/17 06:32:11;;;;;;;5.20;1.38;;;;;;;-143.29;100.00;62188.47;4897379;29;20538;-75
2023/04/17 06:34:36;;;;;;;2.97;1.40;;;;;;;-143.29;100.00;62188.47;4896425;29;20387;-76
2023/04/17 06:37:01;;;;;;;3.47;1.40;;;;;;;-143.29;100.00;62188.47;4897201;29;20574;-75
2023/04/17 06:39:27;;;;;;;4.70;1.50;;;;;;;-143.29;100.00;62188.47;4897156;29;20032;-75
2023/04/17 06:41:52;;;;;;;6.13;1.45;;;;;;;-143.29;100.00;62188.47;4897187;29;20380;-75
2023/04/17 06:44:17;;;;;;;4.85;1.48;;;;;;;-143.29;100.00;62188.47;4896969;29;20036;-75
2023/04/17 06:46:43;;;;;;;3.63;1.65;;;;;;;-143.29;100.00;62188.47;4897059;29;20075;-75
2023/04/17 06:49:08;;;;;;;3.05;1.15;;;;;;;-143.29;100.00;62188.47;4896992;29;20099;-75
2023/04/17 06:51:34;;;;;;;4.35;1.85;;;;;;;-143.29;100.00;62188.47;4896763;29;20051;-75
2023/04/17 06:53:59;;;;;;;4.32;1.60;;;;;;;-143.29;100.00;62188.47;4897134;29;20037;-76
2023/04/17 06:56:25;;;;;;;1.95;1.30;;;;;;;-143.29;100.00;62188.47;4896905;29;20483;-76
2023/04/17 06:58:51;;;;;;;2.63;1.00;;;;;;;-143.29;100.00;62188.47;4896618;29;20028;-76
2023/04/17 07:01:17;;;;;;;4.88;1.15;;;;;;;-143.29;100.00;62188.47;4896892;29;20033;-76
2023/04/17 07:03:42;;;;;;;5.13;1.58;;;;;;;-143.29;100.00;62188.47;4896778;29;20475;-76
2023/04/17 07:06:08;;;;;;;9.68;2.47;;;;;;;-143.29;100.00;62188.47;4896787;29;20036;-76
2023/04/17 07:08:33;;;;;;;9.25;1.75;;;;;;;-143.29;100.00;62188.47;4898646;29;20111;-78
2023/04/17 07:11:00;;;;;;;5.60;2.40;;;;;;;-143.29;100.00;62188.47;4906448;29;20028;-78
2023/04/17 07:13:29;;;;;;;7.15;1.63;;;;;;;-143.29;100.00;62188.47;4896088;29;20036;-76
2023/04/17 07:15:56;;;;;;;4.30;2.28;;;;;;;-143.29;100.00;62188.47;4896403;29;20119;-77
2023/04/17 07:18:22;;;;;;;6.95;2.53;;;;;;;-143.29;100.00;62188.47;4896269;29;20021;-76
2023/04/17 07:20:48;;;;;;;8.90;1.55;;;;;;;-143.29;100.00;62188.47;4896648;29;20365;-76
2023/04/17 07:23:13;;;;;;;7.28;2.05;;;;;;;-143.29;100.00;62188.47;4895364;29;20028;-76
2023/04/17 07:25:39;;;;;;;4.50;1.63;;;;;;;-143.29;100.00;62188.47;4897155;29;20142;-76
2023/04/17 07:28:05;;;;;;;3.05;1.83;;;;;;;-143.29;100.00;62188.47;4899003;29;20123;-75
2023/04/17 07:30:31;;;;;;;4.53;1.52;;;;;;;-143.29;100.00;62188.47;4899486;29;20035;-76
2023/04/17 07:32:56;;;;;;;7.32;2.25;;;;;;;-143.29;100.00;62188.47;4897339;29;20037;-76
2023/04/17 07:35:21;;;;;;;3.50;1.80;;;;;;;-143.29;100.00;62188.47;4897331;29;20037;-76
2023/04/17 07:37:47;;;;;;;8.57;2.08;;;;;;;-143.29;100.00;62188.47;4897669;29;20076;-76
2023/04/17 07:40:13;;;;;;;11.90;2.45;;;;;;;-143.29;100.00;62188.47;4914132;29;20107;-75
2023/04/17 07:42:38;;;;;;;6.47;2.15;;;;;;;-143.29;100.00;62188.47;4897385;29;20071;-75
2023/04/17 07:45:05;;;;;;;5.65;2.38;;;;;;;-143.29;100.00;62188.47;4897025;29;20507;-76
2023/04/17 07:47:30;;;;;;;4.60;2.25;;;;;;;-143.29;100.00;62188.47;4897573;29;20040;-75
2023/04/17 07:49:55;;;;;;;4.35;1.88;;;;;;;-143.29;100.00;62188.47;4897108;29;20036;-76
2023/04/17 07:52:21;;;;;;;7.20;2.22;;;;;;;-143.29;100.00;62188.47;4897388;29;20039;-77
2023/04/17 07:54:46;;;;;;;3.95;2.47;;;;;;;-143.29;100.00;62188.47;4896844;29;20029;-75
2023/04/17 07:57:13;;;;;;;6.35;2.78;;;;;;;-143.29;100.00;62188.47;4897000;29;20060;-76
2023/04/17 07:59:39;;;;;;;6.90;2.65;;;;;;;-143.29;100.00;62188.47;4896843;29;20025;-76
2023/04/17 08:02:04;;;;;;;6.05;2.35;;;;;;;-143.29;100.00;62188.47;4897353;29;20040;-76
2023/04/17 08:04:30;;;;;;;6.22;3.10;;;;;;;-143.29;100.00;62188.47;4897581;29;20033;-76
2023/04/17 08:06:55;;;;;;;5.32;2.47;;;;;;;-143.29;100.00;62188.47;4898365;29;20111;-75
2023/04/17 08:09:21;;;;;;;5.53;2.88;;;;;;;-143.29;100.00;62188.47;4908383;29;20032;-76
2023/04/17 08:11:46;;;;;;;8.02;3.10;;;;;;;-143.29;100.00;62188.47;4916272;29;20463;-76
2023/04/17 08:14:12;;;;;;;5.68;2.60;;;;;;;-143.29;100.00;62188.47;4917054;29;20087;-76
2023/04/17 08:16:37;;;;;;;3.83;2.33;;;;;;;-143.29;100.00;62188.47;4905973;29;20033;-76
2023/04/17 08:19:02;;;;;;;9.00;2.42;;;;;;;-143.29;100.00;62188.47;4906606;29;20047;-75
2023/04/17 08:21:28;;;;;;;3.33;1.98;;;;;;;-143.29;100.00;62188.47;4915672;29;20028;-75
2023/04/17 08:23:53;;;;;;;3.38;1.83;;;;;;;-143.29;100.00;62188.47;4911173;29;20028;-76
2023/04/17 08:26:19;;;;;;;4.43;2.00;;;;;;;-143.29;100.00;62188.47;4898732;29;20403;-76
2023/04/17 08:28:45;;;;;;;11.25;2.10;;;;;;;-143.29;100.00;62188.47;4899454;29;20092;-77
2023/04/17 08:31:11;;;;;;;6.53;2.13;;;;;;;-143.29;100.00;62188.47;4899814;29;20029;-78
2023/04/17 08:33:36;;;;;;;6.47;1.60;;;;;;;-143.29;100.00;62188.47;4899589;29;20035;-76
2023/04/17 08:36:02;;;;;;;2.47;1.50;;;;;;;-143.29;100.00;62188.47;4899215;29;20063;-76
2023/04/17 08:38:28;;;;;;;8.50;1.77;;;;;;;-143.29;100.00;62188.47;4899087;29;20031;-77
2023/04/17 08:40:58;;;;;;;8.82;1.60;;;;;;;-143.29;100.00;62188.47;4899004;29;20033;-79
2023/04/17 08:43:28;;;;;;;3.17;1.63;;;;;;;-143.29;100.00;62188.47;4898018;29;20107;-80
2023/04/17 08:45:54;;;;;;;2.53;1.75;;;;;;;-143.29;100.00;62188.47;4898454;29;20036;-82
2023/04/17 08:48:20;;;;;;;5.50;2.58;;;;;;;-143.29;100.00;62188.47;4898947;29;20419;-78
2023/04/17 08:50:48;;;;;;;4.85;1.98;;;;;;;-143.29;100.00;62188.47;4899203;29;20025;-83
2023/04/17 08:53:14;;;;;;;7.03;1.70;;;;;;;-143.29;100.00;62188.47;4899141;29;20107;-77
2023/04/17 08:55:39;;;;;;;3.50;1.58;;;;;;;-143.29;100.00;62188.47;4898492;29;20127;-76
2023/04/17 08:58:08;;;;;;;3.00;1.23;;;;;;;-143.29;100.00;62188.47;4898909;29;20104;-76
2023/04/17 09:00:38;;;;;;;6.13;1.50;;;;;;;-143.29;100.00;62188.47;4898782;29;20039;-76
2023/04/17 09:03:06;;;;;;;4.72;1.60;;;;;;;-143.29;100.00;62188.47;4898602;29;20083;-76
2023/04/17 09:05:32;;;;;;;3.35;1.70;;;;;;;-143.29;100.00;62188.47;4889210;29;20475;-76
2023/04/17 09:08:14;;;;;;;3.55;1.48;;;;;;;-143.29;100.00;62188.47;4897928;29;20032;-76
2023/04/17 09:10:45;;;;;;;2.67;1.25;;;;;;;-143.29;100.00;62188.47;4898820;29;20068;-77
2023/04/17 09:13:13;;;;;;;5.60;1.60;;;;;;;-143.29;100.00;62188.47;4898004;29;20055;-77
2023/04/17 09:15:39;;;;;;;5.22;1.55;;;;;;;-143.29;100.00;62188.47;4898174;29;20040;-77
2023/04/17 09:18:21;;;;;;;2.38;1.17;;;;;;;-143.29;100.00;62188.47;4898200;29;20044;-77
2023/04/17 09:20:48;;;;;;;;;;;;;;;-143.29;100.00;62188.47;4898475;29;20658;-78
2023/04/17 09:23:13;;;;;;;8.60;1.52;;;;;;;-143.29;100.00;62188.47;4895999;29;19923;-82
2023/04/17 09:25:38;;;;;;;2.72;1.30;;;;;;;-143.29;100.00;62188.47;4897908;29;20184;-78
2023/04/17 09:28:13;;;;;;;2.85;1.50;;;;;;;-143.29;100.00;62188.47;4898222;29;20036;-77
2023/04/17 09:30:39;;;;;;;3.05;1.30;;;;;;;-143.29;100.00;62188.47;4897272;29;20092;-77
2023/04/17 09:33:07;;;;;;;5.20;1.20;;;;;;;-143.29;100.00;62188.47;4897810;29;20432;-77
2023/04/17 09:35:34;;;;;;;5.82;1.33;;;;;;;-143.29;100.00;62188.47;4897442;29;20052;-77
2023/04/17 09:38:00;;;;;;;6.25;1.08;;;;;;;-143.29;100.00;62188.47;4897778;29;20435;-78
2023/04/17 09:40:35;;;;;;;2.75;1.50;;;;;;;-143.29;100.00;62188.47;4898257;29;20055;-78
2023/04/17 09:43:05;;;;;;;3.72;1.20;;;;;;;-143.29;100.00;62188.47;4897071;29;20040;-78
2023/04/17 09:45:35;;;;;;;5.32;1.52;;;;;;;-143.29;100.00;62188.47;4897816;29;20064;-78
2023/04/17 09:48:09;;;;;;;5.57;1.30;;;;;;;-143.29;100.00;62188.47;4898088;29;20033;-78
2023/04/17 09:50:35;;;;;;;7.32;1.58;;;;;;;-143.29;100.00;62188.47;4897245;29;20368;-78
2023/04/17 09:53:02;;;;;;;5.28;1.70;;;;;;;-143.29;100.00;62188.47;4897518;29;20032;-77
2023/04/17 09:55:28;;;;;;;5.80;1.50;;;;;;;-143.29;100.00;62188.47;4897099;29;20047;-77
2023/04/17 09:57:55;;;;;;;7.57;1.80;;;;;;;-143.29;100.00;62188.47;4897581;29;20032;-77
2023/04/17 10:00:25;;;;;;;5.15;1.40;;;;;;;-143.29;100.00;62188.47;4897686;29;20391;-76
2023/04/17 10:02:51;;;;;;;3.22;1.58;;;;;;;-143.29;100.00;62188.47;4896790;29;20028;-76
2023/04/17 10:05:27;;;;;;;3.78;1.13;;;;;;;-143.29;100.00;62188.47;4897914;29;20032;-76
2023/04/17 10:07:53;;;;;;;3.25;1.33;;;;;;;-143.29;100.00;62188.47;4897656;29;20052;-76
2023/04/17 10:10:29;;;;;;;4.65;1.50;;;;;;;-143.29;100.00;62188.47;4897427;29;20495;-76
2023/04/17 10:12:59;;;;;;;3.60;1.60;;;;;;;-143.29;100.00;62188.47;4897692;29;20039;-77
2023/04/17 10:15:26;;;;;;;5.47;1.60;;;;;;;-143.29;100.00;62188.47;4895507;29;20491;-77
2023/04/17 10:17:55;;;;;;;4.30;1.50;;;;;;;-143.29;100.00;62188.47;4897426;29;20028;-76
2023/04/17 10:20:23;;;;;;;3.05;1.48;;;;;;;-143.29;100.00;62188.47;4896262;29;20377;-76
2023/04/17 10:22:55;;;;;;;4.40;1.83;;;;;;;-143.29;100.00;62188.47;4897280;29;20043;-77
2023/04/17 10:25:24;;;;;;;18.42;3.03;;;;;;;-143.29;100.00;62188.47;4910154;29;20036;-77
2023/04/17 10:27:52;;;;;;;10.38;1.70;;;;;;;-143.29;100.00;62188.47;4899230;29;20100;-77
2023/04/17 10:30:21;;;;;;;9.43;1.90;;;;;;;-143.29;100.00;62188.47;4896868;29;20037;-78
2023/04/17 10:33:12;;;;;;;7.65;1.48;;;;;;;-143.29;100.00;62188.47;4897310;29;20048;-76
2023/04/17 10:35:37;;;;;;;3.75;1.55;;;;;;;-143.29;100.00;62188.47;4896741;29;20048;-77
2023/04/17 10:38:07;;;;;;;6.57;1.45;;;;;;;-143.29;100.00;62188.47;4897141;29;20040;-77
2023/04/17 10:40:36;;;;;;;6.30;1.73;;;;;;;-143.29;100.00;62188.47;4896324;29;20029;-76
2023/04/17 10:43:21;;;;;;;3.85;1.30;;;;;;;-143.29;100.00;62188.47;4897013;29;20535;-78
2023/04/17 10:46:04;;;;;;;4.78;1.08;;;;;;;-143.29;100.00;62188.47;4896797;29;20036;-77
2023/04/17 10:48:31;;;;;;;7.30;1.45;;;;;;;-143.29;100.00;62188.47;4897035;29;20047;-78
2023/04/17 10:50:58;;;;;;;4.97;1.42;;;;;;;-143.29;100.00;62188.47;4896763;29;20036;-78
2023/04/17 10:53:37;;;;;;;5.55;1.35;;;;;;;-143.29;100.00;62188.47;4897004;29;20053;-78
2023/04/17 10:56:02;;;;;;;5.38;1.50;;;;;;;-143.29;100.00;62188.47;4896273;29;20077;-78
2023/04/17 10:58:28;;;;;;;6.30;1.30;;;;;;;-143.29;100.00;62188.47;4896786;29;20028;-79
2023/04/17 11:00:54;;;;;;;4.70;1.30;;;;;;;-143.29;100.00;62188.47;4896221;29;20032;-79
2023/04/17 11:03:22;;;;;;;3.88;1.23;;;;;;;-143.29;100.00;62188.47;4896965;29;20503;-78
2023/04/17 11:05:47;;;;;;;1.90;1.30;;;;;;;-143.29;100.00;62188.47;4896177;29;20047;-79